sensor_id;sensor_type;location;lat;lon;timestamp;temperature;humidity
50907;DHT22;36882;27.680;85.304;2023-08-07T00:01:25;21.70;99.90
50907;DHT22;36882;27.680;85.304;2023-08-07T00:03:54;21.60;99.90
50907;DHT22;36882;27.680;85.304;2023-08-07T00:06:24;21.60;99.90
50907;DHT22;36882;27.680;85.304;2023-08-07T00:08:54;21.70;99.90
50907;DHT22;36882;27.680;85.304;2023-08-07T00:11:24;21.60;99.90
50907;DHT22;36882;27.680;85.304;2023-08-07T00:13:54;21.70;99.90
50907;DHT22;36882;27.680;85.304;2023-08-07T00:16:24;21.80;99.90
50907;DHT22;36882;27.680;85.304;2023-08-07T00:18:53;21.80;99.90
50907;DHT22;36882;27.680;85.304;2023-08-07T00:21:25;21.90;99.90
50907;DHT22;36882;27.680;85.304;2023-08-07T00:23:54;21.90;99.90
50907;DHT22;36882;27.680;85.304;2023-08-07T00:26:24;22.00;99.90
50907;DHT22;36882;27.680;85.304;2023-08-07T00:28:55;22.00;99.90
50907;DHT22;36882;27.680;85.304;2023-08-07T00:31:25;22.00;99.90
50907;DHT22;36882;27.680;85.304;2023-08-07T00:33:55;22.10;99.90
50907;DHT22;36882;27.680;85.304;2023-08-07T00:44:54;22.20;99.90
50907;DHT22;36882;27.680;85.304;2023-08-07T00:47:23;22.10;99.90
50907;DHT22;36882;27.680;85.304;2023-08-07T00:49:53;22.10;99.90
50907;DHT22;36882;27.680;85.304;2023-08-07T00:52:23;22.10;99.90
50907;DHT22;36882;27.680;85.304;2023-08-07T00:55:00;22.20;99.90
50907;DHT22;36882;27.680;85.304;2023-08-07T00:57:31;22.30;99.90
50907;DHT22;36882;27.680;85.304;2023-08-07T01:00:01;22.20;99.90
50907;DHT22;36882;27.680;85.304;2023-08-07T01:02:31;22.20;99.90
50907;DHT22;36882;27.680;85.304;2023-08-07T01:05:02;22.20;99.90
50907;DHT22;36882;27.680;85.304;2023-08-07T01:07:32;22.20;99.90
50907;DHT22;36882;27.680;85.304;2023-08-07T01:10:02;22.30;99.90
50907;DHT22;36882;27.680;85.304;2023-08-07T01:12:48;22.40;99.90
50907;DHT22;36882;27.680;85.304;2023-08-07T01:15:24;22.40;99.90
50907;DHT22;36882;27.680;85.304;2023-08-07T01:17:55;22.40;99.90
50907;DHT22;36882;27.680;85.304;2023-08-07T01:20:26;22.40;99.90
50907;DHT22;36882;27.680;85.304;2023-08-07T01:22:55;22.30;99.90
50907;DHT22;36882;27.680;85.304;2023-08-07T01:25:26;22.40;99.90
50907;DHT22;36882;27.680;85.304;2023-08-07T01:28:15;22.50;99.90
50907;DHT22;36882;27.680;85.304;2023-08-07T01:30:50;22.60;99.90
50907;DHT22;36882;27.680;85.304;2023-08-07T01:33:35;22.70;99.90
50907;DHT22;36882;27.680;85.304;2023-08-07T01:36:07;22.80;99.90
50907;DHT22;36882;27.680;85.304;2023-08-07T01:38:38;22.80;99.90
50907;DHT22;36882;27.680;85.304;2023-08-07T01:41:09;22.80;99.90
50907;DHT22;36882;27.680;85.304;2023-08-07T01:43:39;22.80;99.90
50907;DHT22;36882;27.680;85.304;2023-08-07T01:46:10;22.90;99.90
50907;DHT22;36882;27.680;85.304;2023-08-07T01:48:40;22.80;99.90
50907;DHT22;36882;27.680;85.304;2023-08-07T01:51:10;22.80;99.90
50907;DHT22;36882;27.680;85.304;2023-08-07T01:53:40;22.80;99.90
50907;DHT22;36882;27.680;85.304;2023-08-07T01:56:10;22.70;99.90
50907;DHT22;36882;27.680;85.304;2023-08-07T01:58:40;22.80;99.90
50907;DHT22;36882;27.680;85.304;2023-08-07T02:01:09;22.70;99.90
50907;DHT22;36882;27.680;85.304;2023-08-07T02:03:39;22.70;99.90
50907;DHT22;36882;27.680;85.304;2023-08-07T02:06:09;22.70;99.90
50907;DHT22;36882;27.680;85.304;2023-08-07T02:08:38;22.80;99.90
50907;DHT22;36882;27.680;85.304;2023-08-07T02:11:08;22.90;99.90
50907;DHT22;36882;27.680;85.304;2023-08-07T02:13:38;22.90;99.90
50907;DHT22;36882;27.680;85.304;2023-08-07T02:16:07;23.10;99.90
50907;DHT22;36882;27.680;85.304;2023-08-07T02:18:37;23.10;99.90
50907;DHT22;36882;27.680;85.304;2023-08-07T02:21:06;23.00;99.90
50907;DHT22;36882;27.680;85.304;2023-08-07T02:23:36;23.00;99.90
50907;DHT22;36882;27.680;85.304;2023-08-07T02:26:06;22.90;99.90
50907;DHT22;36882;27.680;85.304;2023-08-07T02:28:35;23.10;99.90
50907;DHT22;36882;27.680;85.304;2023-08-07T02:31:05;23.10;99.90
50907;DHT22;36882;27.680;85.304;2023-08-07T02:33:35;23.20;99.90
50907;DHT22;36882;27.680;85.304;2023-08-07T02:36:05;23.40;99.90
50907;DHT22;36882;27.680;85.304;2023-08-07T02:38:34;23.40;99.90
50907;DHT22;36882;27.680;85.304;2023-08-07T02:41:04;23.60;99.90
50907;DHT22;36882;27.680;85.304;2023-08-07T02:43:34;23.70;99.90
50907;DHT22;36882;27.680;85.304;2023-08-07T02:46:04;24.00;99.90
50907;DHT22;36882;27.680;85.304;2023-08-07T02:48:38;24.00;99.90
50907;DHT22;36882;27.680;85.304;2023-08-07T02:51:09;24.10;99.90
50907;DHT22;36882;27.680;85.304;2023-08-07T02:53:39;24.00;99.90
50907;DHT22;36882;27.680;85.304;2023-08-07T02:56:09;23.80;99.90
50907;DHT22;36882;27.680;85.304;2023-08-07T02:58:39;23.80;99.90
50907;DHT22;36882;27.680;85.304;2023-08-07T03:01:09;23.80;99.90
50907;DHT22;36882;27.680;85.304;2023-08-07T03:03:41;23.80;99.90
50907;DHT22;36882;27.680;85.304;2023-08-07T03:06:10;23.80;99.90
50907;DHT22;36882;27.680;85.304;2023-08-07T03:08:40;23.90;99.90
50907;DHT22;36882;27.680;85.304;2023-08-07T03:11:11;23.90;99.90
50907;DHT22;36882;27.680;85.304;2023-08-07T03:13:41;24.00;99.90
50907;DHT22;36882;27.680;85.304;2023-08-07T03:16:13;23.90;99.90
50907;DHT22;36882;27.680;85.304;2023-08-07T03:18:43;24.10;99.90
50907;DHT22;36882;27.680;85.304;2023-08-07T03:21:13;24.20;99.90
50907;DHT22;36882;27.680;85.304;2023-08-07T03:23:43;24.10;99.90
50907;DHT22;36882;27.680;85.304;2023-08-07T03:26:13;24.30;99.90
50907;DHT22;36882;27.680;85.304;2023-08-07T03:28:46;24.40;99.90
50907;DHT22;36882;27.680;85.304;2023-08-07T03:31:17;24.40;99.90
50907;DHT22;36882;27.680;85.304;2023-08-07T03:33:47;24.50;99.90
50907;DHT22;36882;27.680;85.304;2023-08-07T03:36:17;24.60;99.90
50907;DHT22;36882;27.680;85.304;2023-08-07T03:38:46;24.60;99.90
50907;DHT22;36882;27.680;85.304;2023-08-07T03:41:16;24.50;99.90
50907;DHT22;36882;27.680;85.304;2023-08-07T03:43:46;24.40;99.90
50907;DHT22;36882;27.680;85.304;2023-08-07T03:46:16;24.50;99.90
50907;DHT22;36882;27.680;85.304;2023-08-07T03:48:46;24.50;99.90
50907;DHT22;36882;27.680;85.304;2023-08-07T03:51:16;24.50;99.90
50907;DHT22;36882;27.680;85.304;2023-08-07T03:53:46;24.50;99.90
50907;DHT22;36882;27.680;85.304;2023-08-07T03:56:16;24.30;99.90
50907;DHT22;36882;27.680;85.304;2023-08-07T03:58:46;24.40;99.90
50907;DHT22;36882;27.680;85.304;2023-08-07T04:01:16;24.40;99.90
50907;DHT22;36882;27.680;85.304;2023-08-07T04:03:49;24.30;99.90
50907;DHT22;36882;27.680;85.304;2023-08-07T04:06:22;24.30;99.90
50907;DHT22;36882;27.680;85.304;2023-08-07T04:08:52;24.30;99.90
50907;DHT22;36882;27.680;85.304;2023-08-07T04:11:22;24.30;99.90
50907;DHT22;36882;27.680;85.304;2023-08-07T04:13:54;24.30;99.90
50907;DHT22;36882;27.680;85.304;2023-08-07T04:16:24;24.30;99.90
50907;DHT22;36882;27.680;85.304;2023-08-07T04:18:54;24.50;99.90
50907;DHT22;36882;27.680;85.304;2023-08-07T04:21:24;24.50;99.90
50907;DHT22;36882;27.680;85.304;2023-08-07T04:23:55;24.50;99.90
50907;DHT22;36882;27.680;85.304;2023-08-07T04:26:24;24.50;99.90
50907;DHT22;36882;27.680;85.304;2023-08-07T04:28:54;24.70;99.90
50907;DHT22;36882;27.680;85.304;2023-08-07T04:31:24;24.70;99.90
50907;DHT22;36882;27.680;85.304;2023-08-07T04:33:54;24.80;99.90
50907;DHT22;36882;27.680;85.304;2023-08-07T04:36:24;24.80;99.90
50907;DHT22;36882;27.680;85.304;2023-08-07T04:38:54;24.80;99.90
50907;DHT22;36882;27.680;85.304;2023-08-07T04:41:25;25.10;99.90
50907;DHT22;36882;27.680;85.304;2023-08-07T04:43:54;25.30;99.90
50907;DHT22;36882;27.680;85.304;2023-08-07T04:46:24;25.30;99.90
50907;DHT22;36882;27.680;85.304;2023-08-07T04:48:55;25.40;99.90
50907;DHT22;36882;27.680;85.304;2023-08-07T04:51:26;25.30;99.90
50907;DHT22;36882;27.680;85.304;2023-08-07T04:53:58;25.50;99.90
50907;DHT22;36882;27.680;85.304;2023-08-07T04:56:28;25.50;99.90
50907;DHT22;36882;27.680;85.304;2023-08-07T04:58:58;25.60;99.90
50907;DHT22;36882;27.680;85.304;2023-08-07T05:01:28;25.70;99.90
50907;DHT22;36882;27.680;85.304;2023-08-07T05:03:58;26.00;99.90
50907;DHT22;36882;27.680;85.304;2023-08-07T05:06:28;26.10;99.90
50907;DHT22;36882;27.680;85.304;2023-08-07T05:11:28;26.20;99.90
50907;DHT22;36882;27.680;85.304;2023-08-07T05:13:58;26.80;99.90
50907;DHT22;36882;27.680;85.304;2023-08-07T05:16:28;26.90;99.90
50907;DHT22;36882;27.680;85.304;2023-08-07T05:18:59;26.40;99.90
50907;DHT22;36882;27.680;85.304;2023-08-07T05:21:29;26.70;99.90
50907;DHT22;36882;27.680;85.304;2023-08-07T05:23:59;26.80;99.90
50907;DHT22;36882;27.680;85.304;2023-08-07T05:26:29;27.00;99.90
50907;DHT22;36882;27.680;85.304;2023-08-07T05:28:59;26.90;99.90
50907;DHT22;36882;27.680;85.304;2023-08-07T05:31:29;26.60;99.90
50907;DHT22;36882;27.680;85.304;2023-08-07T05:33:59;26.60;99.90
50907;DHT22;36882;27.680;85.304;2023-08-07T05:36:30;26.40;99.90
50907;DHT22;36882;27.680;85.304;2023-08-07T05:39:02;26.70;99.90
50907;DHT22;36882;27.680;85.304;2023-08-07T05:41:33;27.10;99.90
50907;DHT22;36882;27.680;85.304;2023-08-07T05:44:03;27.30;99.90
50907;DHT22;36882;27.680;85.304;2023-08-07T05:46:34;27.10;99.90
50907;DHT22;36882;27.680;85.304;2023-08-07T05:49:04;27.20;99.90
50907;DHT22;36882;27.680;85.304;2023-08-07T05:51:34;27.20;99.90
50907;DHT22;36882;27.680;85.304;2023-08-07T05:56:12;26.60;99.90
50907;DHT22;36882;27.680;85.304;2023-08-07T05:58:42;26.70;99.90
50907;DHT22;36882;27.680;85.304;2023-08-07T06:01:12;27.00;99.90
50907;DHT22;36882;27.680;85.304;2023-08-07T06:03:44;27.00;99.90
50907;DHT22;36882;27.680;85.304;2023-08-07T06:06:14;27.00;99.90
50907;DHT22;36882;27.680;85.304;2023-08-07T06:08:44;26.80;99.90
50907;DHT22;36882;27.680;85.304;2023-08-07T06:11:14;26.80;99.90
50907;DHT22;36882;27.680;85.304;2023-08-07T06:13:44;26.60;99.90
50907;DHT22;36882;27.680;85.304;2023-08-07T06:16:14;26.40;99.90
50907;DHT22;36882;27.680;85.304;2023-08-07T06:18:44;26.40;99.90
50907;DHT22;36882;27.680;85.304;2023-08-07T06:21:14;26.40;99.90
50907;DHT22;36882;27.680;85.304;2023-08-07T06:23:47;26.30;99.90
50907;DHT22;36882;27.680;85.304;2023-08-07T06:26:17;26.30;99.90
50907;DHT22;36882;27.680;85.304;2023-08-07T06:28:48;26.30;99.90
50907;DHT22;36882;27.680;85.304;2023-08-07T06:31:18;26.40;99.90
50907;DHT22;36882;27.680;85.304;2023-08-07T06:33:50;26.40;99.90
50907;DHT22;36882;27.680;85.304;2023-08-07T06:36:20;26.50;99.90
50907;DHT22;36882;27.680;85.304;2023-08-07T06:38:50;26.50;99.90
50907;DHT22;36882;27.680;85.304;2023-08-07T06:41:19;26.50;99.90
50907;DHT22;36882;27.680;85.304;2023-08-07T06:43:50;26.40;99.90
50907;DHT22;36882;27.680;85.304;2023-08-07T06:46:20;26.60;99.90
50907;DHT22;36882;27.680;85.304;2023-08-07T06:48:55;26.60;99.90
50907;DHT22;36882;27.680;85.304;2023-08-07T06:51:25;26.60;99.90
50907;DHT22;36882;27.680;85.304;2023-08-07T06:53:58;26.90;99.90
50907;DHT22;36882;27.680;85.304;2023-08-07T06:56:28;26.80;99.90
50907;DHT22;36882;27.680;85.304;2023-08-07T06:58:58;26.90;99.90
50907;DHT22;36882;27.680;85.304;2023-08-07T07:01:28;27.00;99.90
50907;DHT22;36882;27.680;85.304;2023-08-07T07:03:58;27.10;99.90
50907;DHT22;36882;27.680;85.304;2023-08-07T07:06:29;27.20;99.90
50907;DHT22;36882;27.680;85.304;2023-08-07T07:09:02;27.40;99.90
50907;DHT22;36882;27.680;85.304;2023-08-07T07:11:33;27.50;99.90
50907;DHT22;36882;27.680;85.304;2023-08-07T07:14:03;27.40;99.90
50907;DHT22;36882;27.680;85.304;2023-08-07T07:16:34;27.70;99.90
50907;DHT22;36882;27.680;85.304;2023-08-07T07:19:05;27.80;99.90
50907;DHT22;36882;27.680;85.304;2023-08-07T07:21:39;27.70;99.90
50907;DHT22;36882;27.680;85.304;2023-08-07T07:24:08;27.90;99.90
50907;DHT22;36882;27.680;85.304;2023-08-07T07:26:41;27.90;99.90
50907;DHT22;36882;27.680;85.304;2023-08-07T07:29:11;28.00;99.90
50907;DHT22;36882;27.680;85.304;2023-08-07T07:31:41;28.20;99.90
50907;DHT22;36882;27.680;85.304;2023-08-07T07:34:11;28.20;99.90
50907;DHT22;36882;27.680;85.304;2023-08-07T07:36:45;28.20;99.90
50907;DHT22;36882;27.680;85.304;2023-08-07T07:39:15;28.20;99.90
50907;DHT22;36882;27.680;85.304;2023-08-07T07:41:47;28.30;99.90
50907;DHT22;36882;27.680;85.304;2023-08-07T07:44:17;28.30;99.90
50907;DHT22;36882;27.680;85.304;2023-08-07T07:46:48;28.20;99.90
50907;DHT22;36882;27.680;85.304;2023-08-07T07:49:19;28.20;99.90
50907;DHT22;36882;27.680;85.304;2023-08-07T07:51:50;28.40;99.90
50907;DHT22;36882;27.680;85.304;2023-08-07T07:54:21;28.40;99.90
50907;DHT22;36882;27.680;85.304;2023-08-07T07:56:51;28.50;99.90
50907;DHT22;36882;27.680;85.304;2023-08-07T07:59:21;28.50;99.90
50907;DHT22;36882;27.680;85.304;2023-08-07T08:01:52;28.40;99.90
50907;DHT22;36882;27.680;85.304;2023-08-07T08:04:22;28.40;99.90
50907;DHT22;36882;27.680;85.304;2023-08-07T08:06:55;28.40;99.90
50907;DHT22;36882;27.680;85.304;2023-08-07T08:09:36;28.40;99.90
50907;DHT22;36882;27.680;85.304;2023-08-07T08:12:27;28.50;99.90
50907;DHT22;36882;27.680;85.304;2023-08-07T08:15:05;28.30;99.90
50907;DHT22;36882;27.680;85.304;2023-08-07T08:17:35;28.40;99.90
50907;DHT22;36882;27.680;85.304;2023-08-07T08:20:06;28.30;99.90
50907;DHT22;36882;27.680;85.304;2023-08-07T08:22:37;28.30;99.90
50907;DHT22;36882;27.680;85.304;2023-08-07T08:25:07;28.10;99.90
50907;DHT22;36882;27.680;85.304;2023-08-07T08:27:39;27.90;99.90
50907;DHT22;36882;27.680;85.304;2023-08-07T08:30:10;27.80;99.90
50907;DHT22;36882;27.680;85.304;2023-08-07T08:32:40;27.70;99.90
50907;DHT22;36882;27.680;85.304;2023-08-07T08:35:10;27.50;99.90
50907;DHT22;36882;27.680;85.304;2023-08-07T08:37:41;27.40;99.90
50907;DHT22;36882;27.680;85.304;2023-08-07T08:40:11;27.30;99.90
50907;DHT22;36882;27.680;85.304;2023-08-07T08:42:47;27.40;99.90
50907;DHT22;36882;27.680;85.304;2023-08-07T08:45:17;27.30;99.90
50907;DHT22;36882;27.680;85.304;2023-08-07T08:47:51;27.20;99.90
50907;DHT22;36882;27.680;85.304;2023-08-07T08:50:24;27.40;99.90
50907;DHT22;36882;27.680;85.304;2023-08-07T08:52:57;27.50;99.90
50907;DHT22;36882;27.680;85.304;2023-08-07T08:55:27;27.50;99.90
50907;DHT22;36882;27.680;85.304;2023-08-07T08:57:58;27.60;99.90
50907;DHT22;36882;27.680;85.304;2023-08-07T09:00:31;27.60;99.90
50907;DHT22;36882;27.680;85.304;2023-08-07T09:03:02;27.80;99.90
50907;DHT22;36882;27.680;85.304;2023-08-07T09:05:32;27.90;99.90
50907;DHT22;36882;27.680;85.304;2023-08-07T09:08:03;27.80;99.90
50907;DHT22;36882;27.680;85.304;2023-08-07T09:10:35;27.80;99.90
50907;DHT22;36882;27.680;85.304;2023-08-07T09:13:12;27.80;99.90
50907;DHT22;36882;27.680;85.304;2023-08-07T09:15:45;27.60;99.90
50907;DHT22;36882;27.680;85.304;2023-08-07T09:18:24;27.60;99.90
50907;DHT22;36882;27.680;85.304;2023-08-07T09:21:04;27.50;99.90
50907;DHT22;36882;27.680;85.304;2023-08-07T09:23:47;27.60;99.90
50907;DHT22;36882;27.680;85.304;2023-08-07T09:26:43;27.70;99.90
50907;DHT22;36882;27.680;85.304;2023-08-07T09:29:20;27.80;99.90
50907;DHT22;36882;27.680;85.304;2023-08-07T09:31:56;27.70;99.90
50907;DHT22;36882;27.680;85.304;2023-08-07T09:34:34;27.80;99.90
50907;DHT22;36882;27.680;85.304;2023-08-07T09:37:19;27.80;99.90
50907;DHT22;36882;27.680;85.304;2023-08-07T09:40:04;27.80;99.90
50907;DHT22;36882;27.680;85.304;2023-08-07T09:42:54;27.90;99.90
50907;DHT22;36882;27.680;85.304;2023-08-07T09:45:49;27.90;99.90
50907;DHT22;36882;27.680;85.304;2023-08-07T09:48:48;28.20;99.90
50907;DHT22;36882;27.680;85.304;2023-08-07T09:51:40;28.10;99.90
50907;DHT22;36882;27.680;85.304;2023-08-07T09:54:17;28.20;99.90
50907;DHT22;36882;27.680;85.304;2023-08-07T09:56:55;28.00;99.90
50907;DHT22;36882;27.680;85.304;2023-08-07T09:59:52;27.70;99.90
50907;DHT22;36882;27.680;85.304;2023-08-07T10:02:38;27.90;99.90
50907;DHT22;36882;27.680;85.304;2023-08-07T10:05:11;27.90;99.90
50907;DHT22;36882;27.680;85.304;2023-08-07T10:07:44;28.00;99.90
50907;DHT22;36882;27.680;85.304;2023-08-07T10:10:17;28.10;99.90
50907;DHT22;36882;27.680;85.304;2023-08-07T10:13:00;28.10;99.90
50907;DHT22;36882;27.680;85.304;2023-08-07T10:15:36;28.20;99.90
50907;DHT22;36882;27.680;85.304;2023-08-07T10:18:11;28.10;99.90
50907;DHT22;36882;27.680;85.304;2023-08-07T10:20:43;28.00;99.90
50907;DHT22;36882;27.680;85.304;2023-08-07T10:23:15;28.00;99.90
50907;DHT22;36882;27.680;85.304;2023-08-07T10:25:48;28.00;99.90
50907;DHT22;36882;27.680;85.304;2023-08-07T10:28:29;28.10;99.90
50907;DHT22;36882;27.680;85.304;2023-08-07T10:31:05;27.90;99.90
50907;DHT22;36882;27.680;85.304;2023-08-07T10:33:36;27.90;99.90
50907;DHT22;36882;27.680;85.304;2023-08-07T10:36:10;27.80;99.90
50907;DHT22;36882;27.680;85.304;2023-08-07T10:38:42;27.70;99.90
50907;DHT22;36882;27.680;85.304;2023-08-07T10:41:22;27.50;99.90
50907;DHT22;36882;27.680;85.304;2023-08-07T10:43:59;27.40;99.90
50907;DHT22;36882;27.680;85.304;2023-08-07T10:46:56;27.40;99.90
50907;DHT22;36882;27.680;85.304;2023-08-07T10:49:40;27.30;99.90
50907;DHT22;36882;27.680;85.304;2023-08-07T10:52:15;27.30;99.90
50907;DHT22;36882;27.680;85.304;2023-08-07T10:54:54;27.20;99.90
50907;DHT22;36882;27.680;85.304;2023-08-07T11:00:27;27.10;99.90
50907;DHT22;36882;27.680;85.304;2023-08-07T11:03:02;27.00;99.90
50907;DHT22;36882;27.680;85.304;2023-08-07T11:05:32;26.90;99.90
50907;DHT22;36882;27.680;85.304;2023-08-07T11:08:02;26.70;99.90
50907;DHT22;36882;27.680;85.304;2023-08-07T11:10:32;26.60;99.90
50907;DHT22;36882;27.680;85.304;2023-08-07T11:13:04;26.50;99.90
50907;DHT22;36882;27.680;85.304;2023-08-07T11:15:35;26.50;99.90
50907;DHT22;36882;27.680;85.304;2023-08-07T11:18:06;26.40;99.90
50907;DHT22;36882;27.680;85.304;2023-08-07T11:20:41;26.30;99.90
50907;DHT22;36882;27.680;85.304;2023-08-07T11:23:12;26.30;99.90
50907;DHT22;36882;27.680;85.304;2023-08-07T11:25:42;26.20;99.90
50907;DHT22;36882;27.680;85.304;2023-08-07T11:28:12;26.10;99.90
50907;DHT22;36882;27.680;85.304;2023-08-07T11:30:52;26.10;99.90
50907;DHT22;36882;27.680;85.304;2023-08-07T11:33:23;26.00;99.90
50907;DHT22;36882;27.680;85.304;2023-08-07T11:35:55;26.00;99.90
50907;DHT22;36882;27.680;85.304;2023-08-07T11:38:33;26.00;99.90
50907;DHT22;36882;27.680;85.304;2023-08-07T11:41:06;25.90;99.90
50907;DHT22;36882;27.680;85.304;2023-08-07T11:43:36;25.80;99.90
50907;DHT22;36882;27.680;85.304;2023-08-07T11:46:10;25.70;99.90
50907;DHT22;36882;27.680;85.304;2023-08-07T11:48:42;25.70;99.90
50907;DHT22;36882;27.680;85.304;2023-08-07T11:51:12;25.70;99.90
50907;DHT22;36882;27.680;85.304;2023-08-07T11:53:42;25.60;99.90
50907;DHT22;36882;27.680;85.304;2023-08-07T11:56:14;25.60;99.90
50907;DHT22;36882;27.680;85.304;2023-08-07T11:58:45;25.50;99.90
50907;DHT22;36882;27.680;85.304;2023-08-07T12:01:19;25.50;99.90
50907;DHT22;36882;27.680;85.304;2023-08-07T12:04:17;25.50;99.90
50907;DHT22;36882;27.680;85.304;2023-08-07T12:06:57;25.40;99.90
50907;DHT22;36882;27.680;85.304;2023-08-07T12:09:28;25.40;99.90
50907;DHT22;36882;27.680;85.304;2023-08-07T12:12:00;25.30;99.90
50907;DHT22;36882;27.680;85.304;2023-08-07T12:14:32;25.30;99.90
50907;DHT22;36882;27.680;85.304;2023-08-07T12:17:02;25.30;99.90
50907;DHT22;36882;27.680;85.304;2023-08-07T12:19:39;25.10;99.90
50907;DHT22;36882;27.680;85.304;2023-08-07T12:22:12;25.10;99.90
50907;DHT22;36882;27.680;85.304;2023-08-07T12:24:42;25.10;99.90
50907;DHT22;36882;27.680;85.304;2023-08-07T12:27:12;25.00;99.90
50907;DHT22;36882;27.680;85.304;2023-08-07T12:29:42;25.00;99.90
50907;DHT22;36882;27.680;85.304;2023-08-07T12:32:12;24.90;99.90
50907;DHT22;36882;27.680;85.304;2023-08-07T12:34:42;24.90;99.90
50907;DHT22;36882;27.680;85.304;2023-08-07T12:37:19;24.80;99.90
50907;DHT22;36882;27.680;85.304;2023-08-07T12:39:49;24.80;99.90
50907;DHT22;36882;27.680;85.304;2023-08-07T12:42:22;24.80;99.90
50907;DHT22;36882;27.680;85.304;2023-08-07T12:44:52;24.90;99.90
50907;DHT22;36882;27.680;85.304;2023-08-07T12:47:23;25.00;99.90
50907;DHT22;36882;27.680;85.304;2023-08-07T12:49:53;24.90;99.90
50907;DHT22;36882;27.680;85.304;2023-08-07T12:52:23;24.90;99.90
50907;DHT22;36882;27.680;85.304;2023-08-07T12:54:53;24.90;99.90
50907;DHT22;36882;27.680;85.304;2023-08-07T12:57:23;24.80;99.90
50907;DHT22;36882;27.680;85.304;2023-08-07T12:59:54;24.80;99.90
50907;DHT22;36882;27.680;85.304;2023-08-07T13:02:24;24.70;99.90
50907;DHT22;36882;27.680;85.304;2023-08-07T13:04:56;24.70;99.90
50907;DHT22;36882;27.680;85.304;2023-08-07T13:07:26;24.70;99.90
50907;DHT22;36882;27.680;85.304;2023-08-07T13:09:56;24.60;99.90
50907;DHT22;36882;27.680;85.304;2023-08-07T13:12:26;24.70;99.90
50907;DHT22;36882;27.680;85.304;2023-08-07T13:14:56;24.50;99.90
50907;DHT22;36882;27.680;85.304;2023-08-07T13:17:30;24.50;99.90
50907;DHT22;36882;27.680;85.304;2023-08-07T13:20:01;24.50;99.90
50907;DHT22;36882;27.680;85.304;2023-08-07T13:22:32;24.50;99.90
50907;DHT22;36882;27.680;85.304;2023-08-07T13:25:02;24.50;99.90
50907;DHT22;36882;27.680;85.304;2023-08-07T13:27:35;24.40;99.90
50907;DHT22;36882;27.680;85.304;2023-08-07T13:30:08;24.40;99.90
50907;DHT22;36882;27.680;85.304;2023-08-07T13:32:38;24.40;99.90
50907;DHT22;36882;27.680;85.304;2023-08-07T13:35:08;24.30;99.90
50907;DHT22;36882;27.680;85.304;2023-08-07T13:37:38;24.30;99.90
50907;DHT22;36882;27.680;85.304;2023-08-07T13:40:10;24.30;99.90
50907;DHT22;36882;27.680;85.304;2023-08-07T13:42:40;24.30;99.90
50907;DHT22;36882;27.680;85.304;2023-08-07T13:45:11;24.30;99.90
50907;DHT22;36882;27.680;85.304;2023-08-07T13:47:42;24.20;99.90
50907;DHT22;36882;27.680;85.304;2023-08-07T13:50:13;24.20;99.90
50907;DHT22;36882;27.680;85.304;2023-08-07T13:52:44;24.20;99.90
50907;DHT22;36882;27.680;85.304;2023-08-07T13:55:30;24.20;99.90
50907;DHT22;36882;27.680;85.304;2023-08-07T13:58:00;24.20;99.90
50907;DHT22;36882;27.680;85.304;2023-08-07T14:00:31;24.10;99.90
50907;DHT22;36882;27.680;85.304;2023-08-07T14:03:04;24.10;99.90
50907;DHT22;36882;27.680;85.304;2023-08-07T14:05:35;24.10;99.90
50907;DHT22;36882;27.680;85.304;2023-08-07T14:08:07;24.20;99.90
50907;DHT22;36882;27.680;85.304;2023-08-07T14:10:39;24.20;99.90
50907;DHT22;36882;27.680;85.304;2023-08-07T14:13:10;24.20;99.90
50907;DHT22;36882;27.680;85.304;2023-08-07T14:15:41;24.10;99.90
50907;DHT22;36882;27.680;85.304;2023-08-07T14:18:14;24.10;99.90
50907;DHT22;36882;27.680;85.304;2023-08-07T14:20:45;24.10;99.90
50907;DHT22;36882;27.680;85.304;2023-08-07T14:23:30;24.10;99.90
50907;DHT22;36882;27.680;85.304;2023-08-07T14:26:01;24.20;99.90
50907;DHT22;36882;27.680;85.304;2023-08-07T14:28:31;24.20;99.90
50907;DHT22;36882;27.680;85.304;2023-08-07T14:31:08;24.10;99.90
50907;DHT22;36882;27.680;85.304;2023-08-07T14:33:39;24.10;99.90
50907;DHT22;36882;27.680;85.304;2023-08-07T14:36:09;24.10;99.90
50907;DHT22;36882;27.680;85.304;2023-08-07T14:38:38;24.10;99.90
50907;DHT22;36882;27.680;85.304;2023-08-07T14:41:08;24.20;99.90
50907;DHT22;36882;27.680;85.304;2023-08-07T14:43:38;24.00;99.90
50907;DHT22;36882;27.680;85.304;2023-08-07T14:46:08;24.00;99.90
50907;DHT22;36882;27.680;85.304;2023-08-07T14:48:39;24.00;99.90
50907;DHT22;36882;27.680;85.304;2023-08-07T14:51:09;24.10;99.90
50907;DHT22;36882;27.680;85.304;2023-08-07T14:53:39;24.00;99.90
50907;DHT22;36882;27.680;85.304;2023-08-07T14:56:09;24.00;99.90
50907;DHT22;36882;27.680;85.304;2023-08-07T14:58:41;24.00;99.90
50907;DHT22;36882;27.680;85.304;2023-08-07T15:01:11;23.90;99.90
50907;DHT22;36882;27.680;85.304;2023-08-07T15:03:42;23.90;99.90
50907;DHT22;36882;27.680;85.304;2023-08-07T15:06:13;23.90;99.90
50907;DHT22;36882;27.680;85.304;2023-08-07T15:08:45;23.90;99.90
50907;DHT22;36882;27.680;85.304;2023-08-07T15:11:16;23.80;99.90
50907;DHT22;36882;27.680;85.304;2023-08-07T15:13:46;23.80;99.90
50907;DHT22;36882;27.680;85.304;2023-08-07T15:16:16;23.80;99.90
50907;DHT22;36882;27.680;85.304;2023-08-07T15:18:46;23.80;99.90
50907;DHT22;36882;27.680;85.304;2023-08-07T15:21:16;23.80;99.90
50907;DHT22;36882;27.680;85.304;2023-08-07T15:27:12;23.90;99.90
50907;DHT22;36882;27.680;85.304;2023-08-07T15:29:45;23.80;99.90
50907;DHT22;36882;27.680;85.304;2023-08-07T15:32:16;23.80;99.90
50907;DHT22;36882;27.680;85.304;2023-08-07T15:34:49;23.80;99.90
50907;DHT22;36882;27.680;85.304;2023-08-07T15:37:19;23.90;99.90
50907;DHT22;36882;27.680;85.304;2023-08-07T15:39:50;23.90;99.90
50907;DHT22;36882;27.680;85.304;2023-08-07T15:42:20;24.00;99.90
50907;DHT22;36882;27.680;85.304;2023-08-07T15:44:50;23.90;99.90
50907;DHT22;36882;27.680;85.304;2023-08-07T15:47:20;23.90;99.90
50907;DHT22;36882;27.680;85.304;2023-08-07T15:49:50;23.90;99.90
50907;DHT22;36882;27.680;85.304;2023-08-07T15:52:20;23.90;99.90
50907;DHT22;36882;27.680;85.304;2023-08-07T15:54:50;23.70;99.90
50907;DHT22;36882;27.680;85.304;2023-08-07T15:57:20;23.50;99.90
50907;DHT22;36882;27.680;85.304;2023-08-07T15:59:50;23.50;99.90
50907;DHT22;36882;27.680;85.304;2023-08-07T16:02:20;23.60;99.90
50907;DHT22;36882;27.680;85.304;2023-08-07T16:04:50;23.70;99.90